CheckWX is a tool to help pilots better visualize weather data.  It is not intended as a substitute for an official pre-flight weather briefing.

14:28:01 UTC

KMSS METAR
Massena International-Richards Field Airport
Massena, New York, USA
Current

35 mins ago

KMSS 221353Z AUTO 00000KT 10SM OVC028 13/07 A3026 RMK AO2 SLP249 T01330072
Observed
Apr-22 @ 13:53 UTC
Visibility
10 SM
Flight Rules
MVFR
Cloud Levels
  • Overcast at 2,800' AGL
Temperature
13°C / 55°F
Dewpoint
C / 45°F
Humidity
67%
Altimeter
30.26" Hg
Pressure
1024.72 hPa
Previous

2 hours ago

KMSS 221253Z AUTO 00000KT 10SM OVC029 12/07 A3026 RMK AO2 SLP248 T01170072
Observed
Apr-22 @ 12:53 UTC
Visibility
10 SM
Flight Rules
MVFR
Cloud Levels
  • Overcast at 2,900' AGL
Temperature
12°C / 54°F
Dewpoint
C / 45°F
Humidity
72%
Altimeter
30.26" Hg
Pressure
1024.72 hPa
Previous

2 hours ago

KMSS 221239Z AUTO 15003KT 10SM OVC029 11/07 A3025 RMK AO2 T01060067
Observed
Apr-22 @ 12:39 UTC
Wind
  • 150° at 3 KTS
Visibility
10 SM
Flight Rules
MVFR
Cloud Levels
  • Overcast at 2,900' AGL
Temperature
11°C / 52°F
Dewpoint
C / 45°F
Humidity
77%
Altimeter
30.25" Hg
Pressure
1024.42 hPa